createdAt,value
2023-04-14T00:00:52.266Z,99.90
2023-04-14T00:03:20.058Z,99.90
2023-04-14T00:05:47.378Z,99.90
2023-04-14T00:08:16.772Z,99.90
2023-04-14T00:10:43.636Z,99.90
2023-04-14T00:13:11.691Z,99.90
2023-04-14T00:15:42.594Z,99.90
2023-04-14T00:18:09.394Z,99.90
2023-04-14T00:20:36.190Z,99.90
2023-04-14T00:23:04.007Z,99.90
2023-04-14T00:25:31.887Z,99.90
2023-04-14T00:27:58.651Z,99.90
2023-04-14T00:30:27.092Z,99.90
2023-04-14T00:32:53.883Z,99.90
2023-04-14T00:35:20.872Z,99.90
2023-04-14T00:37:47.777Z,99.90
2023-04-14T00:40:16.588Z,99.90
2023-04-14T00:42:46.206Z,99.90
2023-04-14T00:45:14.166Z,99.90
2023-04-14T00:47:47.772Z,99.90
2023-04-14T00:50:20.513Z,99.90
2023-04-14T00:52:49.545Z,99.90
2023-04-14T00:55:21.462Z,99.90
2023-04-14T00:57:48.888Z,99.90
2023-04-14T01:00:16.060Z,99.90
2023-04-14T01:05:18.337Z,99.90
2023-04-14T01:07:48.296Z,99.90
2023-04-14T01:10:16.267Z,99.90
2023-04-14T01:13:04.871Z,99.90
2023-04-14T01:15:41.133Z,99.90
2023-04-14T01:18:21.820Z,99.90
2023-04-14T01:20:52.300Z,99.90
2023-04-14T01:23:27.356Z,99.90
2023-04-14T01:26:12.736Z,99.90
2023-04-14T01:29:17.202Z,99.90
2023-04-14T01:31:48.584Z,99.90
2023-04-14T01:34:35.951Z,99.90
2023-04-14T01:37:31.218Z,99.90
2023-04-14T01:40:12.001Z,99.90
2023-04-14T01:42:44.389Z,99.90
2023-04-14T01:45:26.606Z,99.90
2023-04-14T01:47:54.398Z,99.90
2023-04-14T01:50:24.330Z,99.90
2023-04-14T01:52:54.429Z,99.90
2023-04-14T01:55:23.831Z,99.90
2023-04-14T01:57:52.758Z,99.90
2023-04-14T02:00:25.095Z,99.90
2023-04-14T02:02:58.198Z,99.90
2023-04-14T02:05:26.240Z,99.90
2023-04-14T02:08:01.452Z,99.90
2023-04-14T02:10:29.203Z,99.90
2023-04-14T02:12:58.562Z,99.90
2023-04-14T02:15:32.183Z,99.90
2023-04-14T02:18:00.376Z,99.90
2023-04-14T02:20:29.627Z,99.90
2023-04-14T02:22:56.789Z,99.90
2023-04-14T02:25:28.156Z,99.90
2023-04-14T02:27:58.842Z,99.90
2023-04-14T02:30:34.259Z,99.90
2023-04-14T02:33:05.794Z,99.90
2023-04-14T02:35:42.542Z,99.90
2023-04-14T02:38:16.390Z,99.90
2023-04-14T02:40:46.559Z,99.90
2023-04-14T02:43:37.718Z,99.90
2023-04-14T02:46:08.649Z,99.90
2023-04-14T02:48:38.421Z,99.90
2023-04-14T02:51:09.402Z,99.90
2023-04-14T02:53:36.743Z,99.90
2023-04-14T02:56:05.092Z,99.90
2023-04-14T02:58:35.275Z,99.90
2023-04-14T03:01:04.692Z,99.90
2023-04-14T03:03:37.980Z,99.90
2023-04-14T03:06:07.055Z,99.90
2023-04-14T03:08:35.150Z,99.90
2023-04-14T03:11:03.490Z,99.90
2023-04-14T03:13:33.688Z,99.90
2023-04-14T03:16:01.113Z,99.90
2023-04-14T03:18:29.584Z,99.90
2023-04-14T03:20:57.562Z,99.90
2023-04-14T03:23:25.978Z,99.90
2023-04-14T03:25:53.876Z,99.90
2023-04-14T03:28:23.544Z,99.90
2023-04-14T03:30:54.042Z,99.90
2023-04-14T03:33:24.505Z,99.90
2023-04-14T03:35:53.603Z,99.90
2023-04-14T03:38:21.447Z,99.90
2023-04-14T03:40:50.322Z,99.90
2023-04-14T03:43:20.111Z,99.90
2023-04-14T03:45:49.211Z,99.90
2023-04-14T03:48:18.498Z,99.90
2023-04-14T03:50:48.055Z,99.90
2023-04-14T03:53:18.125Z,99.90
2023-04-14T03:55:46.437Z,99.90
2023-04-14T03:58:15.816Z,99.90
2023-04-14T04:00:43.353Z,99.90
2023-04-14T04:03:10.905Z,99.90
2023-04-14T04:05:41.133Z,99.90
2023-04-14T04:08:09.444Z,99.90
2023-04-14T04:10:37.753Z,99.90
2023-04-14T04:13:12.694Z,99.90
2023-04-14T04:15:40.874Z,99.90
2023-04-14T04:18:08.512Z,99.90
2023-04-14T04:20:37.932Z,99.90
2023-04-14T04:23:07.565Z,99.90
2023-04-14T04:25:36.689Z,99.90
2023-04-14T04:28:03.782Z,99.90
2023-04-14T04:30:32.566Z,99.90
2023-04-14T04:33:03.039Z,99.90
2023-04-14T04:35:31.821Z,99.90
2023-04-14T04:38:00.833Z,99.90
2023-04-14T04:40:27.870Z,99.90
2023-04-14T04:42:54.673Z,99.90
2023-04-14T04:45:44.543Z,99.90
2023-04-14T04:48:11.362Z,99.90
2023-04-14T04:50:38.053Z,99.90
2023-04-14T04:53:04.846Z,99.90
2023-04-14T04:55:31.572Z,99.90
2023-04-14T04:57:58.485Z,99.90
2023-04-14T05:00:26.614Z,99.90
2023-04-14T05:02:53.445Z,99.90
2023-04-14T05:05:20.526Z,99.90
2023-04-14T05:07:47.351Z,99.90
2023-04-14T05:10:14.088Z,99.90
2023-04-14T05:12:40.957Z,99.90
2023-04-14T05:15:09.947Z,99.90
2023-04-14T05:17:37.356Z,99.90
2023-04-14T05:20:05.882Z,99.90
2023-04-14T05:22:33.057Z,99.90
2023-04-14T05:24:59.834Z,99.90
2023-04-14T05:27:26.657Z,99.90
2023-04-14T05:29:53.334Z,99.90
2023-04-14T05:32:21.712Z,99.90
2023-04-14T05:34:48.534Z,99.90
2023-04-14T05:37:15.432Z,99.90
2023-04-14T05:39:42.375Z,99.90
2023-04-14T05:42:09.162Z,99.90
2023-04-14T05:44:35.975Z,99.90
2023-04-14T05:47:02.785Z,99.90
2023-04-14T05:49:29.741Z,99.90
2023-04-14T05:51:56.690Z,99.90
2023-04-14T05:54:23.394Z,99.90
2023-04-14T05:56:50.227Z,99.90
2023-04-14T05:59:17.352Z,99.90
2023-04-14T06:01:44.144Z,99.90
2023-04-14T06:04:11.562Z,99.90
2023-04-14T06:06:38.641Z,99.90
2023-04-14T06:09:05.284Z,99.90
2023-04-14T06:11:32.056Z,99.90
2023-04-14T06:13:59.475Z,99.90
2023-04-14T06:16:26.266Z,99.90
2023-04-14T06:18:53.008Z,99.90
2023-04-14T06:21:19.626Z,99.90
2023-04-14T06:23:46.456Z,99.90
2023-04-14T06:26:13.261Z,99.90
2023-04-14T06:28:41.085Z,99.90
2023-04-14T06:31:09.394Z,99.90
2023-04-14T06:33:36.160Z,99.90
2023-04-14T06:36:02.927Z,99.90
2023-04-14T06:38:29.674Z,99.90
2023-04-14T06:40:56.311Z,99.90
2023-04-14T06:43:22.977Z,99.90
2023-04-14T06:45:51.112Z,99.90
2023-04-14T06:48:18.059Z,99.90
2023-04-14T06:50:51.696Z,99.90
2023-04-14T06:53:18.332Z,99.90
2023-04-14T06:55:45.041Z,99.90
2023-04-14T06:58:11.746Z,99.90
2023-04-14T07:00:38.500Z,99.90
2023-04-14T07:03:05.335Z,99.90
2023-04-14T07:05:32.101Z,99.90
2023-04-14T07:07:58.784Z,99.90
2023-04-14T07:10:25.597Z,99.90
2023-04-14T07:12:52.543Z,99.90
2023-04-14T07:15:19.532Z,99.90
2023-04-14T07:17:46.379Z,99.90
2023-04-14T07:20:13.406Z,99.90
2023-04-14T07:22:43.817Z,99.90
2023-04-14T07:25:10.850Z,99.90
2023-04-14T07:27:37.623Z,99.90
2023-04-14T07:30:05.045Z,99.90
2023-04-14T07:32:32.935Z,99.90
2023-04-14T07:34:59.708Z,99.90
2023-04-14T07:37:26.869Z,99.90
2023-04-14T07:39:53.699Z,99.90
2023-04-14T07:42:20.523Z,99.90
2023-04-14T07:44:47.207Z,99.90
2023-04-14T07:47:14.117Z,99.90
2023-04-14T07:49:40.974Z,99.90
2023-04-14T07:52:08.059Z,99.90
2023-04-14T07:54:35.084Z,99.90
2023-04-14T07:57:02.305Z,99.90
2023-04-14T07:59:29.121Z,99.90
2023-04-14T08:01:56.160Z,99.90
2023-04-14T08:04:23.103Z,99.90
2023-04-14T08:06:49.851Z,99.90
2023-04-14T08:09:17.251Z,99.90
2023-04-14T08:11:44.080Z,99.90
2023-04-14T08:14:11.135Z,99.90
2023-04-14T08:16:37.821Z,99.90
2023-04-14T08:19:05.341Z,99.90
2023-04-14T08:21:32.477Z,99.90
2023-04-14T08:23:59.192Z,99.90
2023-04-14T08:26:27.471Z,99.90
2023-04-14T08:28:54.500Z,99.90
2023-04-14T08:31:25.630Z,99.90
2023-04-14T08:33:52.926Z,99.90
2023-04-14T08:36:20.594Z,99.90
2023-04-14T08:38:48.238Z,99.90
2023-04-14T08:41:18.850Z,99.90
2023-04-14T08:43:46.656Z,99.90
2023-04-14T08:46:16.138Z,99.90
2023-04-14T08:48:47.796Z,99.90
2023-04-14T08:51:29.206Z,99.90
2023-04-14T08:53:56.994Z,99.90
2023-04-14T08:56:27.210Z,99.90
2023-04-14T08:58:54.145Z,99.90
2023-04-14T09:01:21.067Z,99.90
2023-04-14T09:03:48.674Z,99.90
2023-04-14T09:06:15.826Z,99.90
2023-04-14T09:08:43.346Z,99.90
2023-04-14T09:11:10.322Z,99.90
2023-04-14T09:13:39.018Z,99.90
2023-04-14T09:16:07.045Z,99.90
2023-04-14T09:18:36.387Z,99.90
2023-04-14T09:21:50.758Z,99.90
2023-04-14T09:23:50.552Z,99.90
2023-04-14T09:26:17.504Z,99.90
2023-04-14T09:28:44.177Z,99.90
2023-04-14T09:31:11.511Z,99.90
2023-04-14T09:33:48.578Z,99.90
2023-04-14T09:36:23.653Z,99.90
2023-04-14T09:38:51.567Z,99.90
2023-04-14T09:41:23.180Z,99.90
2023-04-14T09:43:50.562Z,99.90
2023-04-14T09:46:17.375Z,99.90
2023-04-14T09:48:55.685Z,99.90
2023-04-14T09:51:28.375Z,99.90
2023-04-14T09:53:55.980Z,99.90
2023-04-14T09:56:27.266Z,99.90
2023-04-14T09:59:02.165Z,99.90
2023-04-14T10:01:32.579Z,99.90
2023-04-14T10:04:01.535Z,99.90
2023-04-14T10:06:28.322Z,99.90
2023-04-14T10:08:56.362Z,99.90
2023-04-14T10:11:29.496Z,99.90
2023-04-14T10:13:59.649Z,99.90
2023-04-14T10:16:27.408Z,99.40
2023-04-14T10:18:54.912Z,99.90
2023-04-14T10:21:24.536Z,99.90
2023-04-14T10:23:51.751Z,99.60
2023-04-14T10:26:19.652Z,99.50
2023-04-14T10:28:49.665Z,99.20
2023-04-14T10:31:24.733Z,99.30
2023-04-14T10:33:52.444Z,98.70
2023-04-14T10:36:27.226Z,98.30
2023-04-14T10:39:03.117Z,98.20
2023-04-14T10:41:49.951Z,98.30
2023-04-14T10:44:23.393Z,98.40
2023-04-14T10:46:50.190Z,98.60
2023-04-14T10:49:17.700Z,97.40
2023-04-14T10:51:49.777Z,98.20
2023-04-14T10:54:19.270Z,96.20
2023-04-14T10:57:09.640Z,96.20
2023-04-14T10:59:39.456Z,95.80
2023-04-14T11:02:06.803Z,96.00
2023-04-14T11:04:33.602Z,96.20
2023-04-14T11:07:09.365Z,96.20
2023-04-14T11:09:39.094Z,96.00
2023-04-14T11:12:24.311Z,93.30
2023-04-14T11:14:56.786Z,95.10
2023-04-14T11:17:23.617Z,95.70
2023-04-14T11:19:55.226Z,95.70
2023-04-14T11:22:41.770Z,95.00
2023-04-14T11:25:12.038Z,95.30
2023-04-14T11:27:39.568Z,95.10
2023-04-14T11:30:08.515Z,93.80
2023-04-14T11:32:52.384Z,94.50
2023-04-14T11:35:20.696Z,92.80
2023-04-14T11:37:47.586Z,93.10
2023-04-14T11:40:15.624Z,93.40
2023-04-14T11:42:56.183Z,94.90
2023-04-14T11:45:27.304Z,93.50
2023-04-14T11:48:14.459Z,93.00
2023-04-14T11:50:42.632Z,92.10
2023-04-14T11:53:11.674Z,92.10
2023-04-14T11:55:45.152Z,92.20
2023-04-14T11:58:13.173Z,92.10
2023-04-14T12:00:41.134Z,91.90
2023-04-14T12:03:08.900Z,92.60
2023-04-14T12:05:36.422Z,93.30
2023-04-14T12:08:05.787Z,91.90
2023-04-14T12:10:32.532Z,92.70
2023-04-14T12:13:01.661Z,88.00
2023-04-14T12:15:30.958Z,91.50
2023-04-14T12:17:58.653Z,90.40
2023-04-14T12:20:30.720Z,91.80
2023-04-14T12:23:05.207Z,89.40
2023-04-14T12:25:35.220Z,89.70
2023-04-14T12:28:05.860Z,89.40
2023-04-14T12:30:33.443Z,90.60
2023-04-14T12:33:06.143Z,90.50
2023-04-14T12:35:35.808Z,90.70
2023-04-14T12:38:14.990Z,88.20
2023-04-14T12:40:45.982Z,86.60
2023-04-14T12:43:14.168Z,84.70
2023-04-14T12:45:46.281Z,88.20
2023-04-14T12:48:13.747Z,89.00
2023-04-14T12:50:40.640Z,89.20
2023-04-14T12:53:24.613Z,88.20
2023-04-14T12:56:08.039Z,81.30
2023-04-14T12:58:37.727Z,90.50
2023-04-14T13:01:10.698Z,85.70
2023-04-14T13:03:50.370Z,88.70
2023-04-14T13:06:19.898Z,87.80
2023-04-14T13:08:51.349Z,87.90
2023-04-14T13:11:19.899Z,88.60
2023-04-14T13:13:47.269Z,85.50
2023-04-14T13:16:16.814Z,82.90
2023-04-14T13:18:49.062Z,77.40
2023-04-14T13:21:16.682Z,75.70
2023-04-14T13:23:43.666Z,82.90
2023-04-14T13:26:10.803Z,82.90
2023-04-14T13:28:37.610Z,85.10
2023-04-14T13:31:04.619Z,83.90
2023-04-14T13:33:32.866Z,82.40
2023-04-14T13:36:00.985Z,79.70
2023-04-14T13:38:27.653Z,81.80
2023-04-14T13:40:54.678Z,75.20
2023-04-14T13:43:23.023Z,81.20
2023-04-14T13:45:49.743Z,78.40
2023-04-14T13:48:16.488Z,83.00
2023-04-14T13:50:43.522Z,79.80
2023-04-14T13:53:12.170Z,80.50
2023-04-14T13:55:39.133Z,83.70
2023-04-14T13:58:05.998Z,80.40
2023-04-14T14:00:32.854Z,81.00
2023-04-14T14:02:59.737Z,81.80
2023-04-14T14:05:27.201Z,81.90
2023-04-14T14:07:54.034Z,77.10
2023-04-14T14:10:21.033Z,81.30
2023-04-14T14:12:47.809Z,80.50
2023-04-14T14:15:14.590Z,79.50
2023-04-14T14:17:41.530Z,79.20
2023-04-14T14:20:09.445Z,80.40
2023-04-14T14:22:36.552Z,79.30
2023-04-14T14:25:17.619Z,76.20
2023-04-14T14:27:45.792Z,74.50
2023-04-14T14:30:12.949Z,77.80
2023-04-14T14:32:39.788Z,75.80
2023-04-14T14:35:06.950Z,68.60
2023-04-14T14:37:33.686Z,73.30
2023-04-14T14:40:00.433Z,69.70
2023-04-14T14:42:27.366Z,76.20
2023-04-14T14:44:54.318Z,76.40
2023-04-14T14:47:21.366Z,77.00
2023-04-14T14:49:59.087Z,79.10
2023-04-14T14:52:36.689Z,76.90
2023-04-14T14:55:04.192Z,75.00
2023-04-14T14:57:31.333Z,78.10
2023-04-14T14:59:58.627Z,76.60
2023-04-14T15:02:25.872Z,78.30
2023-04-14T15:04:53.586Z,77.80
2023-04-14T15:07:20.738Z,76.90
2023-04-14T15:09:47.853Z,77.10
2023-04-14T15:12:14.700Z,78.40
2023-04-14T15:14:41.487Z,74.60
2023-04-14T15:17:08.321Z,75.60
2023-04-14T15:19:35.006Z,74.00
2023-04-14T15:22:01.767Z,76.20
2023-04-14T15:24:28.523Z,73.10
2023-04-14T15:26:55.952Z,74.30
2023-04-14T15:29:24.973Z,75.00
2023-04-14T15:31:51.998Z,76.90
2023-04-14T15:34:18.959Z,77.00
2023-04-14T15:36:46.006Z,77.60
2023-04-14T15:39:12.942Z,76.90
2023-04-14T15:41:39.667Z,75.00
2023-04-14T15:44:06.380Z,76.90
2023-04-14T15:46:33.204Z,74.20
2023-04-14T15:48:59.959Z,76.00
2023-04-14T15:51:26.899Z,77.60
2023-04-14T15:53:53.658Z,77.40
2023-04-14T15:56:23.488Z,75.70
2023-04-14T15:58:50.582Z,76.00
2023-04-14T16:01:17.558Z,74.10
2023-04-14T16:03:44.735Z,76.00
2023-04-14T16:06:11.663Z,71.00
2023-04-14T16:08:38.566Z,75.30
2023-04-14T16:11:05.466Z,73.20
2023-04-14T16:13:32.222Z,73.50
2023-04-14T16:15:59.050Z,71.70
2023-04-14T16:18:25.826Z,75.40
2023-04-14T16:20:53.183Z,71.40
2023-04-14T16:23:19.896Z,72.90
2023-04-14T16:25:49.874Z,72.70
2023-04-14T16:28:16.876Z,78.10
2023-04-14T16:30:43.738Z,75.40
2023-04-14T16:33:10.761Z,75.80
2023-04-14T16:35:37.527Z,72.60
2023-04-14T16:38:08.252Z,77.90
2023-04-14T16:40:36.260Z,72.50
2023-04-14T16:43:03.348Z,78.60
2023-04-14T16:45:34.609Z,76.90
2023-04-14T16:48:01.573Z,71.10
2023-04-14T16:50:28.334Z,74.70
2023-04-14T16:52:55.058Z,76.70
2023-04-14T16:55:21.755Z,75.50
2023-04-14T16:57:48.413Z,75.60
2023-04-14T17:00:16.473Z,72.90
2023-04-14T17:02:43.253Z,74.50
2023-04-14T17:05:11.086Z,74.60
2023-04-14T17:07:37.876Z,73.00
2023-04-14T17:10:05.101Z,78.40
2023-04-14T17:12:31.865Z,79.50
2023-04-14T17:15:00.347Z,77.60
2023-04-14T17:17:28.378Z,78.30
2023-04-14T17:19:55.826Z,77.10
2023-04-14T17:22:23.912Z,78.50
2023-04-14T17:24:51.914Z,79.20
2023-04-14T17:27:18.872Z,77.40
2023-04-14T17:29:46.317Z,76.70
2023-04-14T17:32:13.417Z,79.60
2023-04-14T17:34:40.405Z,77.30
2023-04-14T17:37:07.254Z,80.00
2023-04-14T17:39:34.026Z,79.10
2023-04-14T17:42:07.408Z,80.60
2023-04-14T17:44:34.661Z,77.30
2023-04-14T17:47:15.420Z,80.10
2023-04-14T17:49:43.985Z,81.00
2023-04-14T17:52:11.643Z,78.60
2023-04-14T17:54:38.455Z,81.40
2023-04-14T17:57:05.356Z,81.80
2023-04-14T17:59:32.154Z,80.20
2023-04-14T18:01:59.115Z,81.00
2023-04-14T18:04:26.464Z,81.20
2023-04-14T18:06:53.633Z,80.70
2023-04-14T18:09:20.378Z,81.90
2023-04-14T18:11:47.116Z,81.70
2023-04-14T18:14:15.371Z,82.40
2023-04-14T18:16:42.084Z,82.50
2023-04-14T18:19:09.170Z,83.70
2023-04-14T18:21:35.863Z,81.70
2023-04-14T18:26:33.040Z,84.20
2023-04-14T18:29:00.154Z,84.30
2023-04-14T18:31:27.183Z,84.70
2023-04-14T18:33:54.050Z,84.40
2023-04-14T18:36:20.900Z,83.30
2023-04-14T18:38:47.657Z,83.60
2023-04-14T18:41:14.825Z,85.60
2023-04-14T18:43:41.701Z,83.10
2023-04-14T18:46:08.546Z,84.70
2023-04-14T18:48:35.349Z,84.30
2023-04-14T18:51:08.139Z,83.70
2023-04-14T18:53:35.079Z,85.40
2023-04-14T18:56:02.140Z,84.30
2023-04-14T18:58:30.412Z,85.20
2023-04-14T19:00:57.415Z,85.90
2023-04-14T19:03:24.280Z,84.40
2023-04-14T19:05:51.064Z,84.90
2023-04-14T19:08:17.758Z,84.70
2023-04-14T19:10:47.766Z,85.10
2023-04-14T19:13:21.350Z,84.80
2023-04-14T19:15:48.058Z,86.20
2023-04-14T19:18:16.894Z,86.00
2023-04-14T19:20:45.579Z,86.10
2023-04-14T19:23:12.307Z,85.30
2023-04-14T19:25:40.514Z,85.00
2023-04-14T19:28:07.960Z,86.30
2023-04-14T19:30:35.524Z,86.50
2023-04-14T19:33:02.254Z,86.80
2023-04-14T19:35:31.155Z,86.90
2023-04-14T19:37:57.939Z,87.40
2023-04-14T19:40:25.269Z,85.90
2023-04-14T19:42:55.037Z,87.90
2023-04-14T19:45:21.824Z,87.40
2023-04-14T19:47:48.534Z,87.90
2023-04-14T19:50:15.473Z,88.00
2023-04-14T19:52:43.831Z,88.70
2023-04-14T19:55:10.573Z,89.10
2023-04-14T19:57:37.214Z,89.60
2023-04-14T20:00:06.760Z,89.60
2023-04-14T20:02:34.042Z,90.20
2023-04-14T20:05:01.107Z,90.40
2023-04-14T20:07:27.800Z,90.40
2023-04-14T20:09:54.626Z,90.80
2023-04-14T20:12:21.296Z,90.90
2023-04-14T20:14:47.955Z,91.10
2023-04-14T20:17:14.573Z,91.10
2023-04-14T20:19:41.817Z,91.60
2023-04-14T20:22:09.364Z,91.70
2023-04-14T20:24:37.350Z,91.90
2023-04-14T20:27:04.320Z,92.10
2023-04-14T20:29:31.047Z,92.40
2023-04-14T20:31:57.764Z,92.60
2023-04-14T20:34:24.689Z,93.00
2023-04-14T20:36:53.240Z,93.20
2023-04-14T20:39:19.912Z,93.20
2023-04-14T20:41:46.738Z,93.30
2023-04-14T20:44:13.493Z,93.50
2023-04-14T20:46:40.502Z,93.60
2023-04-14T20:49:07.469Z,94.00
2023-04-14T20:51:34.365Z,93.80
2023-04-14T20:54:01.828Z,93.90
2023-04-14T20:56:30.611Z,93.80
2023-04-14T20:58:58.757Z,94.10
2023-04-14T21:01:27.704Z,93.90
2023-04-14T21:03:54.897Z,93.90
2023-04-14T21:06:22.129Z,94.30
2023-04-14T21:08:49.893Z,94.00
2023-04-14T21:11:18.522Z,94.00
2023-04-14T21:15:29.496Z,94.00
2023-04-14T21:16:35.671Z,94.00
2023-04-14T21:19:03.925Z,94.60
2023-04-14T21:21:31.723Z,94.60
2023-04-14T21:23:59.014Z,94.70
2023-04-14T21:26:26.868Z,95.00
2023-04-14T21:28:53.532Z,95.00
2023-04-14T21:31:20.529Z,94.90
2023-04-14T21:33:47.797Z,95.30
2023-04-14T21:36:14.528Z,95.40
2023-04-14T21:38:41.312Z,95.60
2023-04-14T21:41:08.113Z,95.80
2023-04-14T21:43:34.891Z,95.90
2023-04-14T21:46:01.774Z,96.40
2023-04-14T21:48:28.774Z,96.30
2023-04-14T21:50:55.486Z,96.10
2023-04-14T21:53:22.679Z,96.20
2023-04-14T21:55:58.752Z,96.50
2023-04-14T21:58:38.829Z,96.80
2023-04-14T22:01:07.202Z,97.10
2023-04-14T22:03:34.118Z,97.00
2023-04-14T22:06:01.168Z,96.90
2023-04-14T22:08:27.882Z,97.20
2023-04-14T22:10:55.234Z,97.60
2023-04-14T22:13:22.039Z,97.70
2023-04-14T22:15:49.815Z,97.60
2023-04-14T22:18:17.132Z,97.80
2023-04-14T22:20:45.217Z,97.90
2023-04-14T22:23:13.199Z,98.10
2023-04-14T22:25:40.504Z,98.00
2023-04-14T22:28:07.455Z,98.00
2023-04-14T22:30:34.338Z,98.40
2023-04-14T22:33:01.276Z,98.50
2023-04-14T22:35:28.052Z,98.30
2023-04-14T22:37:54.706Z,98.40
2023-04-14T22:40:22.034Z,98.50
2023-04-14T22:42:48.743Z,98.70
2023-04-14T22:45:15.585Z,99.00
2023-04-14T22:47:42.303Z,99.20
2023-04-14T22:50:09.377Z,99.30
2023-04-14T22:52:36.350Z,99.60
2023-04-14T22:55:03.216Z,99.30
2023-04-14T22:57:29.945Z,99.10
2023-04-14T22:59:56.658Z,99.40
2023-04-14T23:02:23.525Z,99.60
2023-04-14T23:04:50.674Z,99.70
2023-04-14T23:07:17.451Z,99.80
2023-04-14T23:09:44.161Z,99.80
2023-04-14T23:12:11.321Z,99.90
2023-04-14T23:14:37.978Z,99.90
2023-04-14T23:17:04.675Z,99.90
2023-04-14T23:19:33.548Z,99.90
2023-04-14T23:22:00.213Z,99.90
2023-04-14T23:24:26.922Z,99.90
2023-04-14T23:26:54.046Z,99.90
2023-04-14T23:29:20.937Z,99.90
2023-04-14T23:31:47.652Z,99.90
2023-04-14T23:34:14.401Z,99.90
2023-04-14T23:36:41.692Z,99.90
2023-04-14T23:39:08.544Z,99.90
2023-04-14T23:41:35.456Z,99.90
2023-04-14T23:44:02.170Z,99.90
2023-04-14T23:46:28.910Z,99.90
2023-04-14T23:48:56.476Z,99.80
2023-04-14T23:51:24.133Z,99.70
2023-04-14T23:53:51.332Z,99.40
2023-04-14T23:56:18.123Z,99.10
2023-04-14T23:58:44.866Z,98.90
